Terminal Aerodrome Forecast
Issued by NWS

Home | Current Version | Previous Version | Text Only | Print | Product List | Glossary On
Versions: 1 2 3 4 5 6 7 8 9 10 11 12 13 14 15 16 17 18 19 20 21 22 23 24
000
FTUS46 KLOX 170258 AAA
TAFLAX
TAF AMD
KLAX 170258Z 1703/1806 33005KT 6SM FU SKC
     FM170900 02008KT P6SM SKC WS010/03035KT
     FM171600 06006KT P6SM SKC WS010/04035KT
     FM172100 27008KT 6SM FU SKC=

USA.gov is the U.S. government's official web portal to all federal, state and local government web resources and services.